Terminal Aerodrome Forecast
Issued by NWS Mt. Holly, NJ

Home | Current Version | Previous Version | Text Only | Print | Product List | Glossary On
Versions: 1 2 3 4 5 6 7 8 9 10 11 12 13 14 15 16 17 18 19 20 21
000
FTUS41 KPHI 250146 AAA
TAFACY
TAF AMD
KACY 250146Z 2502/2524 06012G22KT P6SM VCSH SCT015 OVC040
      TEMPO 2503/2504 5SM -SHRA BR SCT008 OVC020
     FM250400 06012G22KT P6SM -SHRA OVC008
     FM250600 06014G24KT 5SM -SHRA OVC005
     FM251000 07017G27KT 2SM RA OVC004
     FM252300 06012G22KT 4SM -SHRA OVC005=

USA.gov is the U.S. government's official web portal to all federal, state and local government web resources and services.